Time;durP1;ratioP1;P1;durP2;ratioP2;P2;SDS_P1;SDS_P2;PMS_P1;PMS_P2;Temp;Humidity;BMP_temperature;BMP_pressure;BME280_temperature;BME280_humidity;BME280_pressure;Samples;Min_cycle;Max_cycle;Signal;HPM_P1;HPM_P2
2022/04/12 00:00:49;;;;;;;12.40;8.70;;;5.60;99.90;;;;;;5014149;28;20267;-71
2022/04/12 00:03:15;;;;;;;13.47;9.17;;;5.50;99.90;;;;;;5013924;28;20235;-71
2022/04/12 00:05:42;;;;;;;11.57;9.33;;;5.50;99.90;;;;;;5012553;28;20299;-71
2022/04/12 00:08:09;;;;;;;10.83;8.73;;;5.40;99.90;;;;;;5012272;28;20326;-70
2022/04/12 00:10:37;;;;;;;15.87;9.60;;;5.40;99.90;;;;;;5013766;28;20851;-69
2022/04/12 00:13:05;;;;;;;12.87;8.57;;;5.40;99.90;;;;;;5013742;28;20575;-70
2022/04/12 00:15:32;;;;;;;11.20;8.40;;;5.40;99.90;;;;;;5012832;28;20209;-71
2022/04/12 00:20:43;;;;;;;12.73;9.07;;;5.30;99.90;;;;;;5012377;28;20715;-71
2022/04/12 00:23:12;;;;;;;11.83;8.47;;;5.20;99.90;;;;;;5011790;28;20637;-71
2022/04/12 00:25:42;;;;;;;12.50;8.73;;;5.20;99.90;;;;;;5005946;28;20717;-70
2022/04/12 00:28:09;;;;;;;14.90;9.57;;;5.10;99.90;;;;;;5013879;28;20210;-70
2022/04/12 00:30:36;;;;;;;13.83;9.27;;;5.10;99.90;;;;;;5013423;28;20681;-70
2022/04/12 00:33:03;;;;;;;12.00;9.00;;;5.10;99.90;;;;;;5013026;28;20715;-70
2022/04/12 00:35:30;;;;;;;9.83;8.57;;;5.10;99.90;;;;;;5013290;28;20291;-71
2022/04/12 00:37:58;;;;;;;13.90;8.70;;;5.00;99.90;;;;;;5013101;28;20229;-70
2022/04/12 00:40:26;;;;;;;15.00;9.43;;;5.00;99.90;;;;;;5012276;28;20616;-71
2022/04/12 00:42:55;;;;;;;13.43;9.30;;;4.90;99.90;;;;;;5014003;28;20207;-70
2022/04/12 00:45:22;;;;;;;15.97;9.13;;;4.90;99.90;;;;;;5013717;28;20239;-70
2022/04/12 00:47:49;;;;;;;13.87;9.10;;;4.90;99.90;;;;;;5013315;28;20250;-71
2022/04/12 00:50:16;;;;;;;15.30;9.00;;;4.80;99.90;;;;;;5014097;28;20246;-71
2022/04/12 00:52:45;;;;;;;13.73;9.43;;;4.80;99.90;;;;;;5012404;28;20222;-71
2022/04/12 00:55:12;;;;;;;11.93;8.50;;;4.80;99.90;;;;;;5012933;28;20243;-70
2022/04/12 00:57:41;;;;;;;14.27;8.37;;;4.70;99.90;;;;;;5012252;28;20686;-70
2022/04/12 01:00:16;;;;;;;12.67;8.63;;;4.70;99.90;;;;;;5013672;28;20235;-69
2022/04/12 01:02:43;;;;;;;13.83;8.23;;;4.70;99.90;;;;;;5012646;28;20206;-67
2022/04/12 01:05:10;;;;;;;10.67;9.00;;;4.60;99.90;;;;;;5014107;28;20285;-67
2022/04/12 01:07:38;;;;;;;13.00;8.33;;;4.70;99.90;;;;;;5010740;28;20712;-67
2022/04/12 01:10:05;;;;;;;12.53;8.67;;;4.60;99.90;;;;;;5014088;28;20215;-66
2022/04/12 01:12:38;;;;;;;14.03;8.90;;;4.60;99.90;;;;;;5013507;28;20215;-67
2022/04/12 01:15:14;;;;;;;12.00;8.53;;;4.60;99.90;;;;;;5014391;28;20257;-67
2022/04/12 01:17:42;;;;;;;11.97;8.37;;;4.60;99.90;;;;;;5012979;28;20195;-67
2022/04/12 01:20:10;;;;;;;14.57;8.70;;;4.60;99.90;;;;;;5013775;28;20263;-66
2022/04/12 01:22:43;;;;;;;14.70;8.40;;;4.60;99.90;;;;;;5013662;28;20302;-67
2022/04/12 01:25:11;;;;;;;12.77;8.87;;;4.60;99.90;;;;;;5010051;28;20204;-67
2022/04/12 01:27:38;;;;;;;14.17;9.60;;;4.60;99.90;;;;;;5012949;28;20214;-66
2022/04/12 01:30:06;;;;;;;15.30;10.73;;;4.60;99.90;;;;;;5009422;28;20291;-66
2022/04/12 01:32:33;;;;;;;13.63;10.27;;;4.50;99.90;;;;;;5012721;28;20242;-67
2022/04/12 01:35:00;;;;;;;14.23;10.10;;;4.50;99.90;;;;;;5014477;28;20204;-67
2022/04/12 01:37:27;;;;;;;12.53;9.73;;;4.50;99.90;;;;;;5013755;28;20269;-67
2022/04/12 01:39:54;;;;;;;14.63;10.07;;;4.50;99.90;;;;;;5013736;28;20239;-67
2022/04/12 01:42:22;;;;;;;14.37;9.80;;;4.40;99.90;;;;;;5012932;28;20242;-66
2022/04/12 01:44:49;;;;;;;12.07;9.43;;;4.40;99.90;;;;;;5012212;28;20211;-67
2022/04/12 01:47:17;;;;;;;16.43;10.77;;;4.40;99.90;;;;;;5001087;28;20261;-66
2022/04/12 01:49:44;;;;;;;15.43;10.17;;;4.40;99.90;;;;;;5014095;28;20660;-66
2022/04/12 01:52:11;;;;;;;13.77;9.77;;;4.40;99.90;;;;;;5014277;28;20231;-66
2022/04/12 01:54:38;;;;;;;13.63;9.17;;;4.30;99.90;;;;;;5013544;28;20207;-66
2022/04/12 01:57:05;;;;;;;14.50;10.87;;;4.30;99.90;;;;;;5011740;28;20235;-67
2022/04/12 01:59:33;;;;;;;14.53;10.00;;;4.30;99.90;;;;;;5013690;28;20237;-66
2022/04/12 02:02:00;;;;;;;14.67;10.20;;;4.20;99.90;;;;;;5013834;28;20269;-66
2022/04/12 02:04:27;;;;;;;15.70;9.70;;;4.10;99.90;;;;;;5012426;28;20239;-66
2022/04/12 02:06:54;;;;;;;13.67;9.10;;;4.10;99.90;;;;;;5010848;28;20632;-66
2022/04/12 02:09:21;;;;;;;15.90;9.70;;;4.10;99.90;;;;;;5014152;28;20664;-66
2022/04/12 02:11:48;;;;;;;13.20;9.13;;;4.10;99.90;;;;;;5013923;28;20583;-66
2022/04/12 02:14:15;;;;;;;13.03;8.93;;;4.00;99.90;;;;;;5012880;28;20211;-65
2022/04/12 02:16:43;;;;;;;13.73;9.23;;;4.00;99.90;;;;;;5012638;28;20249;-65
2022/04/12 02:19:10;;;;;;;13.50;10.27;;;4.00;99.90;;;;;;5014334;28;20231;-67
2022/04/12 02:21:37;;;;;;;15.93;10.07;;;4.00;99.90;;;;;;5006724;28;20306;-67
2022/04/12 02:24:04;;;;;;;15.17;10.00;;;3.90;99.90;;;;;;5007219;28;20290;-66
2022/04/12 02:26:31;;;;;;;13.13;9.53;;;3.90;99.90;;;;;;5000437;28;20210;-66
2022/04/12 02:28:58;;;;;;;14.07;9.33;;;3.80;99.90;;;;;;5012891;28;20200;-67
2022/04/12 02:31:25;;;;;;;15.60;10.20;;;3.80;99.90;;;;;;5012906;28;20571;-67
2022/04/12 02:33:53;;;;;;;15.47;10.33;;;3.70;99.90;;;;;;5011779;28;20212;-66
2022/04/12 02:36:20;;;;;;;14.43;10.57;;;3.70;99.90;;;;;;5013109;28;20668;-66
2022/04/12 02:38:47;;;;;;;18.27;11.23;;;3.70;99.90;;;;;;5012619;28;20234;-66
2022/04/12 02:41:13;;;;;;;15.50;10.90;;;3.70;99.90;;;;;;5015580;28;20203;-66
2022/04/12 02:43:40;;;;;;;16.37;10.73;;;3.70;99.90;;;;;;5014154;28;20211;-66
2022/04/12 02:46:07;;;;;;;16.60;10.67;;;3.70;99.90;;;;;;5007194;28;20257;-66
2022/04/12 02:48:34;;;;;;;19.47;11.87;;;3.70;99.90;;;;;;5016445;28;20211;-66
2022/04/12 02:51:02;;;;;;;16.10;10.93;;;3.60;99.90;;;;;;5016866;28;20223;-66
2022/04/12 02:53:29;;;;;;;14.40;10.37;;;3.60;99.90;;;;;;5015101;28;20218;-67
2022/04/12 02:55:56;;;;;;;19.33;11.80;;;3.60;99.90;;;;;;5016462;28;20214;-66
2022/04/12 02:58:23;;;;;;;17.20;11.63;;;3.60;99.90;;;;;;5016453;28;20599;-67
2022/04/12 03:00:50;;;;;;;18.53;12.30;;;3.50;99.90;;;;;;5015876;28;20334;-67
2022/04/12 03:03:17;;;;;;;17.60;12.63;;;3.50;99.90;;;;;;5006449;28;20298;-67
2022/04/12 03:05:44;;;;;;;20.87;12.17;;;3.50;99.90;;;;;;5013582;28;20635;-66
2022/04/12 03:08:12;;;;;;;15.17;11.50;;;3.50;99.90;;;;;;5016839;28;20670;-66
2022/04/12 03:10:39;;;;;;;17.50;11.30;;;3.50;99.90;;;;;;5016214;28;20203;-67
2022/04/12 03:13:06;;;;;;;16.53;12.37;;;3.50;99.90;;;;;;5015917;28;20318;-66
2022/04/12 03:15:33;;;;;;;15.67;11.97;;;3.40;99.90;;;;;;5013988;28;20203;-67
2022/04/12 03:18:00;;;;;;;17.87;12.00;;;3.40;99.90;;;;;;5016231;28;20643;-66
2022/04/12 03:20:26;;;;;;;14.90;11.53;;;3.40;99.90;;;;;;5015703;28;20443;-67
2022/04/12 03:22:53;;;;;;;18.40;12.53;;;3.40;99.90;;;;;;5014101;28;20211;-67
2022/04/12 03:25:22;;;;;;;19.33;12.00;;;3.40;99.90;;;;;;5016359;28;20247;-66
2022/04/12 03:27:49;;;;;;;18.53;11.87;;;3.40;99.90;;;;;;5015052;28;20243;-67
2022/04/12 03:30:16;;;;;;;15.20;12.13;;;3.40;99.90;;;;;;5015340;28;20207;-67
2022/04/12 03:32:43;;;;;;;17.90;12.53;;;3.30;99.90;;;;;;5015985;28;20209;-67
2022/04/12 03:35:10;;;;;;;18.47;12.83;;;3.30;99.90;;;;;;5016104;28;20219;-66
2022/04/12 03:37:36;;;;;;;19.20;12.87;;;3.20;99.90;;;;;;5016439;28;20207;-65
2022/04/12 03:40:04;;;;;;;16.77;12.03;;;3.20;99.90;;;;;;5014667;28;20607;-67
2022/04/12 03:42:32;;;;;;;19.70;13.00;;;3.20;99.90;;;;;;5015203;28;20234;-66
2022/04/12 03:44:59;;;;;;;22.07;12.93;;;3.20;99.90;;;;;;5015346;28;20207;-66
2022/04/12 03:47:26;;;;;;;18.37;13.23;;;3.20;99.90;;;;;;5015350;28;20299;-66
2022/04/12 03:49:53;;;;;;;18.60;12.90;;;3.20;99.90;;;;;;5012645;28;20208;-67
2022/04/12 03:52:22;;;;;;;22.80;14.10;;;3.20;99.90;;;;;;5014249;28;20595;-67
2022/04/12 03:54:49;;;;;;;17.17;12.90;;;3.20;99.90;;;;;;5006985;28;20218;-66
2022/04/12 03:57:17;;;;;;;18.43;13.00;;;3.20;99.90;;;;;;5016029;28;20334;-66
2022/04/12 03:59:45;;;;;;;18.47;11.83;;;3.20;99.90;;;;;;5005329;28;20239;-67
2022/04/12 04:02:12;;;;;;;20.17;13.63;;;3.20;99.90;;;;;;5010811;28;21611;-67
2022/04/12 04:04:38;;;;;;;19.63;12.30;;;3.20;99.90;;;;;;5014637;28;20268;-66
2022/04/12 04:07:06;;;;;;;25.20;14.37;;;3.30;99.90;;;;;;5014608;28;20235;-66
2022/04/12 04:09:33;;;;;;;19.17;13.77;;;3.30;99.90;;;;;;5014629;28;20203;-65
2022/04/12 04:12:03;;;;;;;22.73;13.13;;;3.30;99.90;;;;;;5013318;28;20210;-67
2022/04/12 04:14:31;;;;;;;19.63;13.27;;;3.30;99.90;;;;;;5013367;28;20208;-66
2022/04/12 04:17:00;;;;;;;19.37;13.23;;;3.40;99.90;;;;;;5014553;28;20580;-66
2022/04/12 04:19:27;;;;;;;19.77;13.77;;;3.50;99.90;;;;;;5015564;28;20235;-66
2022/04/12 04:21:55;;;;;;;18.90;13.73;;;3.60;99.90;;;;;;5013703;28;20246;-66
2022/04/12 04:24:23;;;;;;;20.87;13.90;;;3.60;99.90;;;;;;5013653;28;20211;-66
2022/04/12 04:26:55;;;;;;;20.67;13.90;;;3.60;99.90;;;;;;5013918;28;20634;-66
2022/04/12 04:29:23;;;;;;;21.00;13.80;;;3.70;99.90;;;;;;5005736;28;20614;-66
2022/04/12 04:31:50;;;;;;;17.80;13.03;;;3.70;99.90;;;;;;5012035;28;20215;-66
2022/04/12 04:34:19;;;;;;;20.57;13.70;;;3.80;99.90;;;;;;5014547;28;20211;-66
2022/04/12 04:36:46;;;;;;;20.07;13.97;;;3.80;99.90;;;;;;5001376;28;20207;-66
2022/04/12 04:39:13;;;;;;;21.13;14.63;;;3.80;99.90;;;;;;5014836;28;20267;-65
2022/04/12 04:41:40;;;;;;;20.40;14.60;;;3.90;99.90;;;;;;5014345;28;20238;-65
2022/04/12 04:44:07;;;;;;;21.63;14.00;;;4.00;99.90;;;;;;5015655;28;20209;-65
2022/04/12 04:46:34;;;;;;;19.30;14.07;;;4.00;99.90;;;;;;5013742;28;20278;-65
2022/04/12 04:49:01;;;;;;;19.83;13.63;;;4.00;99.90;;;;;;5014702;28;20687;-65
2022/04/12 04:51:29;;;;;;;21.47;15.30;;;4.10;99.90;;;;;;5013255;28;20239;-66
2022/04/12 04:53:59;;;;;;;20.80;14.53;;;4.10;99.90;;;;;;5015626;28;20653;-66
2022/04/12 04:56:27;;;;;;;18.87;13.80;;;4.20;99.90;;;;;;5016367;28;20295;-66
2022/04/12 04:58:54;;;;;;;19.60;13.53;;;4.30;99.90;;;;;;5017697;28;20273;-67
2022/04/12 05:01:21;;;;;;;19.83;14.90;;;4.40;99.90;;;;;;5016731;28;20228;-66
2022/04/12 05:03:50;;;;;;;19.40;13.27;;;4.40;99.90;;;;;;5017394;28;20208;-65
2022/04/12 05:06:17;;;;;;;22.83;15.37;;;4.50;99.90;;;;;;5008276;28;20215;-67
2022/04/12 05:08:46;;;;;;;21.23;14.17;;;4.50;99.90;;;;;;5012814;28;20337;-66
2022/04/12 05:11:13;;;;;;;21.10;13.70;;;4.70;99.90;;;;;;5017539;28;20234;-67
2022/04/12 05:13:39;;;;;;;19.60;13.73;;;4.80;99.90;;;;;;5018071;28;20211;-66
2022/04/12 05:16:06;;;;;;;19.00;12.97;;;4.80;99.90;;;;;;5016553;28;20213;-65
2022/04/12 05:18:33;;;;;;;20.00;14.23;;;4.90;99.90;;;;;;5014219;28;20280;-66
2022/04/12 05:21:00;;;;;;;21.13;13.37;;;4.90;99.90;;;;;;5010912;28;20807;-66
2022/04/12 05:23:27;;;;;;;19.27;13.50;;;5.00;99.90;;;;;;5009603;28;20582;-67
2022/04/12 05:25:56;;;;;;;18.90;12.80;;;5.20;99.90;;;;;;5007499;28;20776;-67
2022/04/12 05:28:23;;;;;;;19.17;12.43;;;5.20;99.90;;;;;;5007159;28;20288;-67
2022/04/12 05:30:50;;;;;;;16.53;12.30;;;5.40;99.90;;;;;;5006479;28;20199;-66
2022/04/12 05:33:17;;;;;;;14.20;11.73;;;5.50;99.90;;;;;;5005217;28;20298;-66
2022/04/12 05:35:43;;;;;;;18.57;12.97;;;5.60;99.90;;;;;;5003782;28;20293;-66
2022/04/12 05:38:10;;;;;;;19.43;13.17;;;5.70;99.90;;;;;;5004225;28;20695;-67
2022/04/12 05:40:37;;;;;;;18.13;12.10;;;5.70;99.90;;;;;;5007591;28;20269;-66
2022/04/12 05:43:07;;;;;;;19.17;12.67;;;5.80;99.90;;;;;;5007998;28;20208;-68
2022/04/12 05:45:34;;;;;;;16.27;11.40;;;5.90;99.90;;;;;;5012078;28;20211;-64
2022/04/12 05:48:02;;;;;;;15.33;10.23;;;6.00;99.90;;;;;;5005958;28;20204;-66
2022/04/12 05:50:29;;;;;;;16.60;11.60;;;6.10;99.90;;;;;;5012688;28;20203;-68
2022/04/12 05:52:57;;;;;;;17.50;12.13;;;6.20;99.90;;;;;;5010612;28;20241;-67
2022/04/12 05:55:26;;;;;;;16.73;11.87;;;6.30;99.90;;;;;;5009693;28;20207;-66
2022/04/12 05:57:55;;;;;;;14.90;10.87;;;6.40;99.90;;;;;;5012346;28;20586;-66
2022/04/12 06:00:24;;;;;;;15.47;10.00;;;6.40;99.90;;;;;;5011319;28;20663;-66
2022/04/12 06:02:53;;;;;;;14.60;10.20;;;6.50;99.90;;;;;;5012978;28;20926;-66
2022/04/12 06:05:21;;;;;;;15.77;10.17;;;6.50;99.90;;;;;;5006807;28;20624;-66
2022/04/12 06:07:48;;;;;;;14.27;9.03;;;6.60;99.90;;;;;;5011402;28;20246;-65
2022/04/12 06:10:16;;;;;;;14.30;9.40;;;6.70;99.90;;;;;;5012825;28;20266;-69
2022/04/12 06:12:43;;;;;;;15.60;9.20;;;6.80;99.90;;;;;;5004285;28;20698;-67
2022/04/12 06:15:11;;;;;;;12.43;9.37;;;6.90;99.90;;;;;;5014543;28;20203;-63
2022/04/12 06:17:39;;;;;;;15.20;10.13;;;7.00;99.90;;;;;;5012163;28;20211;-64
2022/04/12 06:20:10;;;;;;;14.27;8.90;;;7.20;99.90;;;;;;5016565;28;20223;-63
2022/04/12 06:22:37;;;;;;;13.37;8.60;;;7.20;99.90;;;;;;5012074;28;20235;-63
2022/04/12 06:25:05;;;;;;;13.93;10.00;;;7.30;99.90;;;;;;5003174;28;20214;-64
2022/04/12 06:27:34;;;;;;;12.70;8.63;;;7.40;99.90;;;;;;5013736;28;20211;-63
2022/04/12 06:30:05;;;;;;;12.60;8.70;;;7.60;99.90;;;;;;5008154;28;20204;-65
2022/04/12 06:32:32;;;;;;;13.10;8.83;;;7.70;99.90;;;;;;5015638;28;20298;-66
2022/04/12 06:35:00;;;;;;;17.80;9.63;;;7.70;99.90;;;;;;5015499;28;20208;-63
2022/04/12 06:37:28;;;;;;;13.27;9.03;;;7.80;99.90;;;;;;5011811;28;20278;-64
2022/04/12 06:39:57;;;;;;;18.53;10.07;;;7.90;99.90;;;;;;5013131;28;20306;-64
2022/04/12 06:42:24;;;;;;;13.20;8.47;;;7.90;99.90;;;;;;5013950;28;20275;-67
2022/04/12 06:44:51;;;;;;;11.60;8.20;;;7.90;99.90;;;;;;5016829;28;20655;-66
2022/04/12 06:47:19;;;;;;;13.43;8.17;;;7.90;99.90;;;;;;5016462;28;20240;-65
2022/04/12 06:49:47;;;;;;;10.97;8.20;;;8.00;99.90;;;;;;5016209;28;20208;-65
2022/04/12 06:52:17;;;;;;;13.30;7.90;;;8.00;99.90;;;;;;5016999;28;20213;-65
2022/04/12 06:54:44;;;;;;;10.67;7.10;;;8.10;99.90;;;;;;5014276;28;20235;-66
2022/04/12 06:57:11;;;;;;;10.90;7.87;;;8.20;99.90;;;;;;5014686;28;20218;-64
2022/04/12 06:59:39;;;;;;;12.83;8.40;;;8.30;99.90;;;;;;5016609;28;20750;-66
2022/04/12 07:02:06;;;;;;;9.83;7.60;;;8.30;99.90;;;;;;5012525;28;20231;-65
2022/04/12 07:04:34;;;;;;;11.80;7.27;;;8.40;99.90;;;;;;5016823;28;20222;-67
2022/04/12 07:07:01;;;;;;;12.93;7.43;;;8.50;99.90;;;;;;5015618;28;20211;-67
2022/04/12 07:09:30;;;;;;;10.30;7.30;;;8.60;99.90;;;;;;5013030;28;20774;-65
2022/04/12 07:11:59;;;;;;;10.03;7.17;;;8.70;99.90;;;;;;5013929;28;20203;-67
2022/04/12 07:14:28;;;;;;;10.00;7.17;;;8.80;99.90;;;;;;5012718;28;20648;-65
2022/04/12 07:16:56;;;;;;;10.97;7.10;;;8.80;99.90;;;;;;5013738;28;20211;-66
2022/04/12 07:19:23;;;;;;;8.73;6.93;;;8.90;99.90;;;;;;5016341;28;20242;-66
2022/04/12 07:21:50;;;;;;;9.50;6.83;;;9.00;99.90;;;;;;5015651;28;20338;-66
2022/04/12 07:24:17;;;;;;;10.33;6.50;;;9.10;99.90;;;;;;5008438;28;20288;-65
2022/04/12 07:26:46;;;;;;;11.23;6.83;;;9.20;99.90;;;;;;5011151;28;20265;-65
2022/04/12 07:29:13;;;;;;;8.33;5.83;;;9.30;99.90;;;;;;5010609;28;20246;-65
2022/04/12 07:31:40;;;;;;;11.90;5.50;;;9.50;99.90;;;;;;5014570;28;20207;-66
2022/04/12 07:34:09;;;;;;;6.90;5.80;;;9.60;99.90;;;;;;5012553;28;20560;-66
2022/04/12 07:36:39;;;;;;;9.23;5.30;;;9.70;99.90;;;;;;5010351;28;20215;-66
2022/04/12 07:39:06;;;;;;;7.67;5.50;;;9.80;99.00;;;;;;5011818;28;20333;-66
2022/04/12 07:41:33;;;;;;;7.10;4.77;;;9.90;98.30;;;;;;5012313;28;20350;-66
2022/04/12 07:44:02;;;;;;;8.10;4.63;;;10.00;97.40;;;;;;5010352;28;20207;-66
2022/04/12 07:46:29;;;;;;;5.80;4.30;;;10.10;96.90;;;;;;5015268;28;20234;-66
2022/04/12 07:48:56;;;;;;;8.17;4.27;;;10.30;96.50;;;;;;5011348;28;20746;-66
2022/04/12 07:51:23;;;;;;;6.27;5.00;;;10.40;95.00;;;;;;5010575;28;20229;-66
2022/04/12 07:53:49;;;;;;;6.80;4.47;;;10.40;93.90;;;;;;5014781;28;20217;-65
2022/04/12 07:56:17;;;;;;;10.47;5.70;;;10.30;93.50;;;;;;5015100;28;20663;-65
2022/04/12 07:58:44;;;;;;;11.07;5.40;;;10.40;93.40;;;;;;5015164;28;20669;-65
2022/04/12 08:01:13;;;;;;;7.67;4.47;;;10.50;92.90;;;;;;5014591;28;20293;-66
2022/04/12 08:03:41;;;;;;;4.50;3.10;;;10.70;92.60;;;;;;5014944;28;20233;-67
2022/04/12 08:06:08;;;;;;;6.07;3.40;;;10.80;91.70;;;;;;5000401;28;20203;-66
2022/04/12 08:08:35;;;;;;;5.47;2.90;;;10.90;90.40;;;;;;5014347;28;20211;-66
2022/04/12 08:11:02;;;;;;;6.87;3.43;;;10.90;88.80;;;;;;5015751;28;20261;-66
2022/04/12 08:13:29;;;;;;;6.13;3.43;;;10.90;87.60;;;;;;5016014;28;20211;-66
2022/04/12 08:15:56;;;;;;;6.63;3.50;;;10.80;87.20;;;;;;5015333;28;20207;-66
2022/04/12 08:18:25;;;;;;;5.47;2.93;;;10.80;85.70;;;;;;5013900;28;21182;-67
2022/04/12 08:20:54;;;;;;;4.23;2.93;;;10.80;85.00;;;;;;5011185;28;20231;-67
2022/04/12 08:23:22;;;;;;;5.30;3.57;;;10.70;84.20;;;;;;5006005;28;20199;-67
2022/04/12 08:25:49;;;;;;;5.60;3.97;;;10.70;83.60;;;;;;5011437;28;20652;-68
2022/04/12 08:28:16;;;;;;;6.23;2.80;;;10.60;83.00;;;;;;5008763;28;20677;-67
2022/04/12 08:30:44;;;;;;;6.30;3.40;;;10.60;82.70;;;;;;5014873;28;20257;-66
2022/04/12 08:33:11;;;;;;;4.80;2.40;;;10.70;81.50;;;;;;5012665;28;20210;-66
2022/04/12 08:35:40;;;;;;;3.47;1.67;;;10.80;78.90;;;;;;5013750;28;20207;-66
2022/04/12 08:38:07;;;;;;;3.33;2.17;;;10.90;77.20;;;;;;5009794;28;20707;-67
2022/04/12 08:40:35;;;;;;;4.67;2.40;;;10.80;74.90;;;;;;5005251;28;20243;-67
2022/04/12 08:43:02;;;;;;;2.47;1.93;;;10.80;74.50;;;;;;5009834;28;20614;-67
2022/04/12 08:45:29;;;;;;;4.67;2.50;;;10.80;73.80;;;;;;5007379;28;20295;-67
2022/04/12 08:47:57;;;;;;;4.97;2.60;;;10.90;73.80;;;;;;5011567;28;20302;-67
2022/04/12 08:50:24;;;;;;;3.17;2.33;;;10.90;74.10;;;;;;5017758;28;20234;-66
2022/04/12 08:52:54;;;;;;;4.20;2.27;;;11.10;74.40;;;;;;5015159;28;20258;-68
2022/04/12 08:55:21;;;;;;;4.87;2.03;;;11.40;74.20;;;;;;5013731;28;20211;-65
2022/04/12 08:57:48;;;;;;;2.03;1.83;;;11.60;72.50;;;;;;5014805;28;20206;-66
2022/04/12 09:00:16;;;;;;;4.00;2.07;;;12.00;70.20;;;;;;5014679;28;20330;-66
2022/04/12 09:02:43;;;;;;;4.87;2.80;;;12.20;69.10;;;;;;5013285;28;20664;-67
2022/04/12 09:05:10;;;;;;;4.67;2.57;;;12.40;68.60;;;;;;5003661;28;20211;-66
2022/04/12 09:07:47;;;;;;;4.67;2.60;;;12.60;68.20;;;;;;5009980;28;20222;-66
2022/04/12 09:10:16;;;;;;;3.53;2.57;;;12.90;66.80;;;;;;5010380;28;20215;-66
2022/04/12 09:12:43;;;;;;;5.37;2.20;;;12.80;65.00;;;;;;5006254;28;20203;-66
2022/04/12 09:15:11;;;;;;;4.33;2.77;;;12.80;64.70;;;;;;5016080;28;20207;-66
2022/04/12 09:17:41;;;;;;;3.50;1.93;;;12.70;64.10;;;;;;5013400;28;20275;-67
2022/04/12 09:20:13;;;;;;;3.70;2.43;;;12.70;63.70;;;;;;5011716;28;20253;-68
2022/04/12 09:22:40;;;;;;;2.73;2.00;;;12.80;63.10;;;;;;5009515;28;20227;-66
2022/04/12 09:25:11;;;;;;;2.70;2.07;;;12.90;64.80;;;;;;5009580;28;20815;-68
2022/04/12 09:27:40;;;;;;;7.30;2.10;;;13.30;62.40;;;;;;5004981;28;20234;-67
2022/04/12 09:30:08;;;;;;;2.03;1.80;;;13.60;60.50;;;;;;5011383;28;20665;-67
2022/04/12 09:32:37;;;;;;;2.80;1.97;;;13.60;59.70;;;;;;5010692;28;20215;-67
2022/04/12 09:35:06;;;;;;;5.20;2.60;;;13.70;59.30;;;;;;5006530;28;20619;-67
2022/04/12 09:37:35;;;;;;;2.70;2.30;;;13.70;59.90;;;;;;5008207;28;20234;-66
2022/04/12 09:40:11;;;;;;;4.93;2.77;;;13.80;59.20;;;;;;5013019;28;20274;-67
2022/04/12 09:42:42;;;;;;;3.70;2.57;;;13.80;59.10;;;;;;5012793;28;20246;-65
2022/04/12 09:45:11;;;;;;;4.13;2.60;;;13.80;59.70;;;;;;5007918;28;20483;-66
2022/04/12 09:47:39;;;;;;;2.87;2.40;;;14.10;59.50;;;;;;5010606;28;20207;-66
2022/04/12 09:50:09;;;;;;;3.47;2.30;;;14.30;58.20;;;;;;5008430;28;20638;-67
2022/04/12 09:52:40;;;;;;;4.53;2.57;;;14.60;58.00;;;;;;5013619;28;20217;-66
2022/04/12 09:55:08;;;;;;;3.27;2.60;;;15.00;56.80;;;;;;5015591;28;20234;-68
2022/04/12 09:57:39;;;;;;;2.87;2.27;;;15.40;55.90;;;;;;5015061;28;20265;-67
2022/04/12 10:00:09;;;;;;;2.43;2.03;;;15.70;54.30;;;;;;5015341;28;21856;-66
2022/04/12 10:02:37;;;;;;;3.73;2.60;;;15.80;53.20;;;;;;5012044;28;20254;-66
2022/04/12 10:05:05;;;;;;;4.57;2.60;;;15.80;52.50;;;;;;5015398;28;20207;-67
2022/04/12 10:07:35;;;;;;;2.67;2.30;;;15.70;51.70;;;;;;5009176;28;20219;-67
2022/04/12 10:10:05;;;;;;;4.00;2.43;;;15.60;51.70;;;;;;5016215;28;20298;-67
2022/04/12 10:12:32;;;;;;;4.27;2.43;;;15.70;51.60;;;;;;5015085;28;20227;-68
2022/04/12 10:15:02;;;;;;;2.97;2.67;;;15.80;51.30;;;;;;5014577;28;20286;-67
2022/04/12 10:17:33;;;;;;;3.80;2.97;;;16.10;52.00;;;;;;5014991;28;20688;-67
2022/04/12 10:20:01;;;;;;;5.80;2.60;;;16.40;51.30;;;;;;5011885;28;20200;-67
2022/04/12 10:22:28;;;;;;;3.87;2.27;;;16.80;52.50;;;;;;5005181;28;20259;-67
2022/04/12 10:24:56;;;;;;;4.40;2.20;;;17.10;50.80;;;;;;5018164;28;20207;-67
2022/04/12 10:27:23;;;;;;;3.63;2.40;;;17.40;50.00;;;;;;5013361;28;20294;-67
2022/04/12 10:30:22;;;;;;;4.40;2.77;;;17.60;48.60;;;;;;5010303;28;20242;-67
2022/04/12 10:33:01;;;;;;;3.40;2.20;;;18.00;46.70;;;;;;5009886;28;20222;-67
2022/04/12 10:35:28;;;;;;;3.63;2.70;;;18.40;45.90;;;;;;5007831;28;20561;-67
2022/04/12 10:37:57;;;;;;;4.18;2.25;;;18.60;45.30;;;;;;5012447;28;20214;-67
2022/04/12 10:40:26;;;;;;;4.22;2.50;;;18.70;45.80;;;;;;5017230;28;20242;-67
2022/04/12 10:42:54;;;;;;;4.60;2.78;;;18.80;45.80;;;;;;5014582;28;20235;-66
2022/04/12 10:45:29;;;;;;;4.80;3.00;;;18.80;45.50;;;;;;5011608;28;20207;-66
2022/04/12 10:48:00;;;;;;;5.05;2.97;;;18.70;45.80;;;;;;5016028;28;20203;-66
2022/04/12 10:50:27;;;;;;;5.07;2.90;;;18.70;45.90;;;;;;5017181;28;20227;-66
2022/04/12 10:52:54;;;;;;;5.25;2.70;;;18.70;45.70;;;;;;5009707;28;20283;-66
2022/04/12 10:55:23;;;;;;;6.18;3.00;;;18.70;45.70;;;;;;5011117;28;20322;-66
2022/04/12 10:57:51;;;;;;;5.75;3.00;;;18.60;45.00;;;;;;5007527;28;20208;-66
2022/04/12 11:00:19;;;;;;;5.28;2.92;;;18.30;44.50;;;;;;5005090;28;20665;-66
2022/04/12 11:02:47;;;;;;;2.25;1.88;;;18.00;44.80;;;;;;5010562;28;20227;-67
2022/04/12 11:05:56;;;;;;;3.65;2.08;;;17.80;44.10;;;;;;5011636;28;20207;-66
2022/04/12 11:08:47;;;;;;;3.88;2.40;;;17.60;42.00;;;;;;4997866;28;20203;-67
2022/04/12 11:11:28;;;;;;;3.88;2.45;;;17.30;42.20;;;;;;5014326;28;20195;-67
2022/04/12 11:13:56;;;;;;;3.63;2.65;;;17.60;43.30;;;;;;5005521;28;20199;-67
2022/04/12 11:16:27;;;;;;;4.55;3.10;;;17.90;43.40;;;;;;5014425;28;20618;-66
2022/04/12 11:18:55;;;;;;;5.57;3.55;;;18.10;44.40;;;;;;5016437;28;20207;-67
2022/04/12 11:21:24;;;;;;;6.07;4.20;;;18.30;44.10;;;;;;5016545;28;20231;-68
2022/04/12 11:23:58;;;;;;;4.63;3.00;;;18.50;44.20;;;;;;5016880;28;20215;-66
2022/04/12 11:26:37;;;;;;;4.70;3.30;;;18.70;43.70;;;;;;5013330;28;20199;-67
2022/04/12 11:29:08;;;;;;;3.80;2.25;;;18.70;43.10;;;;;;5013466;28;20290;-66
2022/04/12 11:31:40;;;;;;;5.90;2.90;;;18.40;42.90;;;;;;5016060;28;20694;-68
2022/04/12 11:34:07;;;;;;;5.07;2.50;;;18.10;43.20;;;;;;5014459;28;20583;-67
2022/04/12 11:36:35;;;;;;;3.30;2.30;;;17.80;43.10;;;;;;5009499;28;20689;-66
2022/04/12 11:39:04;;;;;;;4.60;2.47;;;17.60;43.10;;;;;;5015259;28;20291;-66
2022/04/12 11:41:31;;;;;;;3.97;2.35;;;17.40;42.90;;;;;;5009336;28;20568;-67
2022/04/12 11:44:02;;;;;;;2.15;1.83;;;17.50;43.20;;;;;;5011483;28;20207;-67
2022/04/12 11:46:36;;;;;;;4.22;2.67;;;17.60;43.00;;;;;;5011728;28;20235;-68
2022/04/12 11:49:08;;;;;;;5.55;2.50;;;17.60;42.00;;;;;;5004913;28;20199;-68
2022/04/12 11:51:40;;;;;;;2.85;2.10;;;17.80;41.90;;;;;;4999462;28;20251;-67
2022/04/12 11:54:24;;;;;;;4.93;3.28;;;17.80;41.10;;;;;;5003395;28;20204;-68
2022/04/12 11:57:02;;;;;;;3.75;2.65;;;17.60;41.10;;;;;;5008828;28;20688;-68
2022/04/12 11:59:30;;;;;;;6.63;2.47;;;17.40;41.80;;;;;;5008578;28;20736;-69
2022/04/12 12:01:59;;;;;;;3.83;2.50;;;17.40;43.30;;;;;;5013279;28;20254;-66
2022/04/12 12:04:29;;;;;;;4.65;2.08;;;17.60;43.00;;;;;;5013696;28;20247;-66
2022/04/12 12:07:01;;;;;;;4.60;1.80;;;17.60;42.60;;;;;;5011252;28;20222;-66
2022/04/12 12:09:29;;;;;;;3.42;2.30;;;17.70;42.10;;;;;;5010919;28;20211;-66
2022/04/12 12:12:01;;;;;;;6.68;2.28;;;18.00;41.70;;;;;;5013736;28;20218;-65
2022/04/12 12:14:29;;;;;;;5.32;2.63;;;18.20;41.40;;;;;;5011417;28;20626;-65
2022/04/12 12:17:03;;;;;;;3.22;2.30;;;18.30;41.10;;;;;;5003398;28;20315;-65
2022/04/12 12:19:33;;;;;;;4.97;2.30;;;18.40;41.90;;;;;;5010781;28;20313;-67
2022/04/12 12:22:01;;;;;;;3.38;1.90;;;18.40;42.00;;;;;;5013627;28;20231;-68
2022/04/12 12:24:29;;;;;;;4.00;2.20;;;18.50;42.50;;;;;;5013008;28;20203;-65
2022/04/12 12:26:57;;;;;;;2.80;2.20;;;18.70;41.70;;;;;;5013557;28;20221;-68
2022/04/12 12:29:25;;;;;;;3.58;2.17;;;18.70;40.30;;;;;;5012488;28;20207;-66
2022/04/12 12:31:57;;;;;;;3.13;2.22;;;18.70;39.50;;;;;;5012995;28;20234;-66
2022/04/12 12:34:28;;;;;;;1.85;1.65;;;18.60;38.80;;;;;;5012535;28;20660;-66
2022/04/12 12:36:55;;;;;;;4.75;2.17;;;18.60;38.40;;;;;;5015220;28;20303;-67
2022/04/12 12:39:22;;;;;;;3.78;2.13;;;18.60;38.50;;;;;;5013660;28;20322;-65
2022/04/12 12:41:57;;;;;;;3.80;2.38;;;18.70;38.40;;;;;;5014924;28;20207;-66
2022/04/12 12:44:25;;;;;;;4.03;2.22;;;18.70;38.10;;;;;;5011779;28;20249;-69
2022/04/12 12:46:59;;;;;;;4.60;2.40;;;18.60;38.80;;;;;;4998223;28;20261;-67
2022/04/12 12:49:35;;;;;;;3.13;1.90;;;18.60;39.00;;;;;;5014343;28;20664;-67
2022/04/12 12:52:04;;;;;;;3.35;1.98;;;18.60;39.40;;;;;;5014800;28;20242;-66